sensor_id;sensor_type;location;lat;lon;timestamp;P1;durP1;ratioP1;P2;durP2;ratioP2
13687;SDS011;6916;51.504;7.416;2023-07-20T00:03:13;8.25;;;4.40;;
13687;SDS011;6916;51.504;7.416;2023-07-20T00:13:19;9.18;;;4.60;;
13687;SDS011;6916;51.504;7.416;2023-07-20T00:23:23;5.97;;;5.35;;
13687;SDS011;6916;51.504;7.416;2023-07-20T00:33:25;7.25;;;4.68;;
13687;SDS011;6916;51.504;7.416;2023-07-20T00:43:28;8.82;;;5.70;;
13687;SDS011;6916;51.504;7.416;2023-07-20T00:53:30;8.93;;;6.10;;
13687;SDS011;6916;51.504;7.416;2023-07-20T01:03:35;8.13;;;4.85;;
13687;SDS011;6916;51.504;7.416;2023-07-20T01:13:38;10.07;;;5.60;;
13687;SDS011;6916;51.504;7.416;2023-07-20T01:34:11;9.40;;;5.07;;
13687;SDS011;6916;51.504;7.416;2023-07-20T01:44:18;8.88;;;5.32;;
13687;SDS011;6916;51.504;7.416;2023-07-20T01:54:20;10.15;;;5.35;;
13687;SDS011;6916;51.504;7.416;2023-07-20T02:04:23;8.00;;;5.95;;
13687;SDS011;6916;51.504;7.416;2023-07-20T02:14:26;8.65;;;5.82;;
13687;SDS011;6916;51.504;7.416;2023-07-20T02:24:28;9.80;;;6.15;;
13687;SDS011;6916;51.504;7.416;2023-07-20T02:34:31;9.55;;;6.35;;
13687;SDS011;6916;51.504;7.416;2023-07-20T02:44:33;11.43;;;6.82;;
13687;SDS011;6916;51.504;7.416;2023-07-20T02:54:36;10.23;;;7.18;;
13687;SDS011;6916;51.504;7.416;2023-07-20T03:04:38;14.63;;;8.55;;
13687;SDS011;6916;51.504;7.416;2023-07-20T03:14:45;19.70;;;9.13;;
13687;SDS011;6916;51.504;7.416;2023-07-20T03:24:47;10.50;;;7.93;;
13687;SDS011;6916;51.504;7.416;2023-07-20T03:34:50;11.77;;;8.30;;
13687;SDS011;6916;51.504;7.416;2023-07-20T03:44:53;13.57;;;8.25;;
13687;SDS011;6916;51.504;7.416;2023-07-20T03:54:57;10.68;;;9.48;;
13687;SDS011;6916;51.504;7.416;2023-07-20T04:04:59;11.05;;;9.50;;
13687;SDS011;6916;51.504;7.416;2023-07-20T04:15:02;15.00;;;10.43;;
13687;SDS011;6916;51.504;7.416;2023-07-20T04:25:06;17.38;;;13.73;;
13687;SDS011;6916;51.504;7.416;2023-07-20T04:35:09;23.92;;;20.58;;
13687;SDS011;6916;51.504;7.416;2023-07-20T04:45:15;19.87;;;16.17;;
13687;SDS011;6916;51.504;7.416;2023-07-20T04:55:18;20.50;;;15.32;;
13687;SDS011;6916;51.504;7.416;2023-07-20T05:05:21;17.13;;;13.82;;
13687;SDS011;6916;51.504;7.416;2023-07-20T05:15:27;15.77;;;11.77;;
13687;SDS011;6916;51.504;7.416;2023-07-20T05:25:32;12.65;;;11.30;;
13687;SDS011;6916;51.504;7.416;2023-07-20T05:35:36;9.20;;;8.27;;
13687;SDS011;6916;51.504;7.416;2023-07-20T05:45:43;8.07;;;7.00;;
13687;SDS011;6916;51.504;7.416;2023-07-20T05:55:51;8.93;;;6.63;;
13687;SDS011;6916;51.504;7.416;2023-07-20T06:06:01;8.57;;;6.82;;
13687;SDS011;6916;51.504;7.416;2023-07-20T06:16:04;7.20;;;6.40;;
13687;SDS011;6916;51.504;7.416;2023-07-20T06:26:07;7.13;;;6.20;;
13687;SDS011;6916;51.504;7.416;2023-07-20T06:36:09;5.35;;;4.82;;
13687;SDS011;6916;51.504;7.416;2023-07-20T06:46:12;3.95;;;3.53;;
13687;SDS011;6916;51.504;7.416;2023-07-20T06:56:15;2.65;;;2.45;;
13687;SDS011;6916;51.504;7.416;2023-07-20T07:06:18;1.40;;;1.30;;
13687;SDS011;6916;51.504;7.416;2023-07-20T07:16:20;2.00;;;1.77;;
13687;SDS011;6916;51.504;7.416;2023-07-20T07:26:23;3.28;;;2.97;;
13687;SDS011;6916;51.504;7.416;2023-07-20T07:36:26;3.97;;;2.15;;
13687;SDS011;6916;51.504;7.416;2023-07-20T07:46:29;1.95;;;1.85;;
13687;SDS011;6916;51.504;7.416;2023-07-20T07:56:31;1.67;;;1.58;;
13687;SDS011;6916;51.504;7.416;2023-07-20T08:06:34;1.33;;;0.90;;
13687;SDS011;6916;51.504;7.416;2023-07-20T08:16:36;0.75;;;0.63;;
13687;SDS011;6916;51.504;7.416;2023-07-20T08:26:39;1.08;;;0.80;;
13687;SDS011;6916;51.504;7.416;2023-07-20T08:36:41;1.02;;;0.30;;
13687;SDS011;6916;51.504;7.416;2023-07-20T08:46:44;0.50;;;0.50;;
13687;SDS011;6916;51.504;7.416;2023-07-20T08:56:47;0.77;;;0.20;;
13687;SDS011;6916;51.504;7.416;2023-07-20T09:06:51;0.82;;;0.30;;
13687;SDS011;6916;51.504;7.416;2023-07-20T09:16:54;0.63;;;0.40;;
13687;SDS011;6916;51.504;7.416;2023-07-20T09:26:57;0.55;;;0.20;;
13687;SDS011;6916;51.504;7.416;2023-07-20T09:37:03;0.20;;;0.20;;
13687;SDS011;6916;51.504;7.416;2023-07-20T09:47:07;1.58;;;0.20;;
13687;SDS011;6916;51.504;7.416;2023-07-20T09:57:11;0.90;;;0.20;;
13687;SDS011;6916;51.504;7.416;2023-07-20T10:07:15;0.55;;;0.20;;
13687;SDS011;6916;51.504;7.416;2023-07-20T10:17:20;0.82;;;0.20;;
13687;SDS011;6916;51.504;7.416;2023-07-20T10:27:24;0.40;;;0.25;;
13687;SDS011;6916;51.504;7.416;2023-07-20T10:47:55;0.30;;;0.30;;
13687;SDS011;6916;51.504;7.416;2023-07-20T10:58:08;0.47;;;0.45;;
13687;SDS011;6916;51.504;7.416;2023-07-20T11:08:12;0.38;;;0.38;;
13687;SDS011;6916;51.504;7.416;2023-07-20T11:18:15;0.88;;;0.50;;
13687;SDS011;6916;51.504;7.416;2023-07-20T11:28:17;0.38;;;0.38;;
13687;SDS011;6916;51.504;7.416;2023-07-20T11:38:21;1.33;;;0.47;;
13687;SDS011;6916;51.504;7.416;2023-07-20T11:48:23;1.65;;;0.80;;
13687;SDS011;6916;51.504;7.416;2023-07-20T11:58:27;0.75;;;0.57;;
13687;SDS011;6916;51.504;7.416;2023-07-20T12:08:30;0.60;;;0.60;;
13687;SDS011;6916;51.504;7.416;2023-07-20T12:18:35;0.60;;;0.60;;
13687;SDS011;6916;51.504;7.416;2023-07-20T12:28:39;1.08;;;0.30;;
13687;SDS011;6916;51.504;7.416;2023-07-20T12:38:45;1.80;;;0.22;;
13687;SDS011;6916;51.504;7.416;2023-07-20T12:48:47;0.20;;;0.20;;
13687;SDS011;6916;51.504;7.416;2023-07-20T12:58:51;1.50;;;0.30;;
13687;SDS011;6916;51.504;7.416;2023-07-20T13:08:54;0.90;;;0.10;;
13687;SDS011;6916;51.504;7.416;2023-07-20T13:18:58;0.73;;;0.32;;
13687;SDS011;6916;51.504;7.416;2023-07-20T13:29:01;0.28;;;0.28;;
13687;SDS011;6916;51.504;7.416;2023-07-20T13:39:03;0.50;;;0.20;;
13687;SDS011;6916;51.504;7.416;2023-07-20T13:49:07;0.22;;;0.20;;
13687;SDS011;6916;51.504;7.416;2023-07-20T13:59:14;1.77;;;0.40;;
13687;SDS011;6916;51.504;7.416;2023-07-20T14:09:17;0.20;;;0.20;;
13687;SDS011;6916;51.504;7.416;2023-07-20T14:19:20;0.30;;;0.22;;
13687;SDS011;6916;51.504;7.416;2023-07-20T14:29:24;0.70;;;0.47;;
13687;SDS011;6916;51.504;7.416;2023-07-20T14:39:30;0.52;;;0.38;;
13687;SDS011;6916;51.504;7.416;2023-07-20T14:49:33;0.30;;;0.30;;
13687;SDS011;6916;51.504;7.416;2023-07-20T14:59:36;0.22;;;0.22;;
13687;SDS011;6916;51.504;7.416;2023-07-20T15:09:40;0.75;;;0.30;;
13687;SDS011;6916;51.504;7.416;2023-07-20T15:19:48;1.67;;;0.90;;
13687;SDS011;6916;51.504;7.416;2023-07-20T15:29:53;0.95;;;0.30;;
13687;SDS011;6916;51.504;7.416;2023-07-20T15:39:56;0.47;;;0.30;;
13687;SDS011;6916;51.504;7.416;2023-07-20T15:49:59;0.85;;;0.50;;
13687;SDS011;6916;51.504;7.416;2023-07-20T16:00:03;0.47;;;0.47;;
13687;SDS011;6916;51.504;7.416;2023-07-20T16:10:12;0.45;;;0.35;;
13687;SDS011;6916;51.504;7.416;2023-07-20T16:20:17;2.75;;;0.38;;
13687;SDS011;6916;51.504;7.416;2023-07-20T16:30:19;0.77;;;0.40;;
13687;SDS011;6916;51.504;7.416;2023-07-20T16:40:22;0.57;;;0.40;;
13687;SDS011;6916;51.504;7.416;2023-07-20T16:50:29;0.40;;;0.40;;
13687;SDS011;6916;51.504;7.416;2023-07-20T17:00:31;0.98;;;0.50;;
13687;SDS011;6916;51.504;7.416;2023-07-20T17:10:35;0.85;;;0.40;;
13687;SDS011;6916;51.504;7.416;2023-07-20T17:20:39;0.55;;;0.35;;
13687;SDS011;6916;51.504;7.416;2023-07-20T17:30:45;0.75;;;0.40;;
13687;SDS011;6916;51.504;7.416;2023-07-20T17:40:47;0.95;;;0.28;;
13687;SDS011;6916;51.504;7.416;2023-07-20T17:50:51;2.53;;;0.40;;
13687;SDS011;6916;51.504;7.416;2023-07-20T18:00:57;0.30;;;0.20;;
13687;SDS011;6916;51.504;7.416;2023-07-20T18:11:06;1.48;;;0.40;;
13687;SDS011;6916;51.504;7.416;2023-07-20T18:21:09;0.38;;;0.30;;
13687;SDS011;6916;51.504;7.416;2023-07-20T18:31:12;1.35;;;0.40;;
13687;SDS011;6916;51.504;7.416;2023-07-20T18:41:17;0.50;;;0.40;;
13687;SDS011;6916;51.504;7.416;2023-07-20T18:51:22;0.50;;;0.30;;
13687;SDS011;6916;51.504;7.416;2023-07-20T19:01:28;0.68;;;0.28;;
13687;SDS011;6916;51.504;7.416;2023-07-20T19:11:31;0.47;;;0.32;;
13687;SDS011;6916;51.504;7.416;2023-07-20T19:21:37;1.48;;;0.50;;
13687;SDS011;6916;51.504;7.416;2023-07-20T19:31:40;3.38;;;0.30;;
13687;SDS011;6916;51.504;7.416;2023-07-20T19:41:42;3.78;;;0.50;;
13687;SDS011;6916;51.504;7.416;2023-07-20T19:51:45;0.68;;;0.50;;
13687;SDS011;6916;51.504;7.416;2023-07-20T20:01:48;2.83;;;0.60;;
13687;SDS011;6916;51.504;7.416;2023-07-20T20:11:51;1.08;;;0.40;;
13687;SDS011;6916;51.504;7.416;2023-07-20T20:21:53;0.90;;;0.55;;
13687;SDS011;6916;51.504;7.416;2023-07-20T20:32:03;0.98;;;0.70;;
13687;SDS011;6916;51.504;7.416;2023-07-20T20:42:07;1.35;;;0.70;;
13687;SDS011;6916;51.504;7.416;2023-07-20T20:52:10;0.73;;;0.57;;
13687;SDS011;6916;51.504;7.416;2023-07-20T21:02:16;2.35;;;0.60;;
13687;SDS011;6916;51.504;7.416;2023-07-20T21:12:22;1.05;;;0.55;;
13687;SDS011;6916;51.504;7.416;2023-07-20T21:22:25;3.70;;;0.70;;
13687;SDS011;6916;51.504;7.416;2023-07-20T21:32:28;2.10;;;0.80;;
13687;SDS011;6916;51.504;7.416;2023-07-20T21:42:30;0.93;;;0.70;;
13687;SDS011;6916;51.504;7.416;2023-07-20T21:52:34;1.58;;;1.20;;
13687;SDS011;6916;51.504;7.416;2023-07-20T22:02:37;4.88;;;1.33;;
13687;SDS011;6916;51.504;7.416;2023-07-20T22:12:45;1.38;;;1.27;;
13687;SDS011;6916;51.504;7.416;2023-07-20T22:22:49;2.78;;;1.80;;
13687;SDS011;6916;51.504;7.416;2023-07-20T22:32:53;3.45;;;1.88;;
13687;SDS011;6916;51.504;7.416;2023-07-20T22:42:57;2.70;;;2.50;;
13687;SDS011;6916;51.504;7.416;2023-07-20T22:53:00;2.40;;;1.83;;
13687;SDS011;6916;51.504;7.416;2023-07-20T23:03:04;3.03;;;2.75;;
13687;SDS011;6916;51.504;7.416;2023-07-20T23:13:10;3.92;;;3.00;;
13687;SDS011;6916;51.504;7.416;2023-07-20T23:23:15;3.63;;;3.33;;
13687;SDS011;6916;51.504;7.416;2023-07-20T23:33:19;3.78;;;3.47;;
13687;SDS011;6916;51.504;7.416;2023-07-20T23:43:25;4.22;;;3.83;;
13687;SDS011;6916;51.504;7.416;2023-07-20T23:53:28;4.10;;;3.50;;
